createdAt,value
2023-08-19T00:00:30.685Z,99.90
2023-08-19T00:02:59.033Z,99.90
2023-08-19T00:05:28.883Z,99.90
2023-08-19T00:07:57.129Z,99.90
2023-08-19T00:10:26.054Z,99.90
2023-08-19T00:12:54.506Z,99.90
2023-08-19T00:15:23.189Z,99.90
2023-08-19T00:17:51.577Z,99.90
2023-08-19T00:20:20.084Z,99.90
2023-08-19T00:22:49.754Z,99.90
2023-08-19T00:25:18.094Z,99.90
2023-08-19T00:27:46.472Z,99.90
2023-08-19T00:30:15.088Z,99.90
2023-08-19T00:32:43.768Z,99.90
2023-08-19T00:35:12.235Z,99.90
2023-08-19T00:37:40.788Z,99.90
2023-08-19T00:40:14.156Z,99.90
2023-08-19T00:42:42.705Z,99.90
2023-08-19T00:45:11.423Z,99.90
2023-08-19T00:47:40.104Z,99.90
2023-08-19T00:50:10.381Z,99.90
2023-08-19T00:52:39.121Z,99.90
2023-08-19T00:55:08.282Z,99.90
2023-08-19T00:57:39.244Z,99.90
2023-08-19T01:00:08.135Z,99.90
2023-08-19T01:02:36.589Z,99.90
2023-08-19T01:05:05.365Z,99.90
2023-08-19T01:07:40.148Z,99.90
2023-08-19T01:10:12.804Z,99.90
2023-08-19T01:12:45.208Z,99.90
2023-08-19T01:15:15.885Z,99.90
2023-08-19T01:17:46.473Z,99.90
2023-08-19T01:20:16.007Z,99.90
2023-08-19T01:22:48.094Z,99.90
2023-08-19T01:25:18.315Z,99.90
2023-08-19T01:27:46.885Z,99.90
2023-08-19T01:30:15.885Z,99.90
2023-08-19T01:32:45.340Z,99.90
2023-08-19T01:35:14.916Z,99.90
2023-08-19T01:37:48.274Z,99.90
2023-08-19T01:40:18.308Z,99.90
2023-08-19T01:42:46.936Z,99.90
2023-08-19T01:45:15.681Z,99.90
2023-08-19T01:47:45.016Z,99.90
2023-08-19T01:50:13.327Z,99.90
2023-08-19T01:52:42.074Z,99.90
2023-08-19T01:55:10.875Z,99.90
2023-08-19T01:57:40.835Z,99.90
2023-08-19T02:00:09.778Z,99.90
2023-08-19T02:02:38.133Z,99.90
2023-08-19T02:05:07.122Z,99.90
2023-08-19T02:07:35.506Z,99.90
2023-08-19T02:10:04.393Z,99.90
2023-08-19T02:12:32.699Z,99.90
2023-08-19T02:15:02.522Z,99.90
2023-08-19T02:17:31.073Z,99.90
2023-08-19T02:19:59.649Z,99.90
2023-08-19T02:22:28.123Z,99.90
2023-08-19T02:24:56.457Z,99.90
2023-08-19T02:27:24.756Z,99.90
2023-08-19T02:29:53.172Z,99.90
2023-08-19T02:32:22.832Z,99.90
2023-08-19T02:34:51.155Z,99.90
2023-08-19T02:37:19.473Z,99.90
2023-08-19T02:39:47.788Z,99.90
2023-08-19T02:42:17.773Z,99.90
2023-08-19T02:44:46.201Z,99.90
2023-08-19T02:47:14.496Z,99.90
2023-08-19T02:49:44.278Z,99.90
2023-08-19T02:52:12.664Z,99.90
2023-08-19T02:54:41.111Z,99.90
2023-08-19T02:57:09.680Z,99.90
2023-08-19T02:59:38.013Z,99.90
2023-08-19T03:02:06.420Z,99.90
2023-08-19T03:04:34.735Z,99.90
2023-08-19T03:07:04.454Z,99.90
2023-08-19T03:09:32.754Z,99.90
2023-08-19T03:12:01.004Z,99.90
2023-08-19T03:14:31.015Z,99.90
2023-08-19T03:16:59.468Z,99.90
2023-08-19T03:19:28.532Z,99.90
2023-08-19T03:21:56.947Z,99.90
2023-08-19T03:24:26.843Z,99.90
2023-08-19T03:26:55.106Z,99.90
2023-08-19T03:29:23.425Z,99.90
2023-08-19T03:31:51.893Z,99.90
2023-08-19T03:34:20.280Z,99.90
2023-08-19T03:36:49.181Z,99.90
2023-08-19T03:39:17.528Z,99.90
2023-08-19T03:41:47.275Z,99.90
2023-08-19T03:44:15.686Z,99.90
2023-08-19T03:46:44.219Z,99.90
2023-08-19T03:49:12.643Z,99.90
2023-08-19T03:51:41.295Z,99.90
2023-08-19T03:54:09.619Z,99.90
2023-08-19T03:56:38.031Z,99.90
2023-08-19T03:59:07.948Z,99.90
2023-08-19T04:01:36.326Z,99.90
2023-08-19T04:04:04.753Z,99.90
2023-08-19T04:06:33.165Z,99.90
2023-08-19T04:09:02.164Z,99.90
2023-08-19T04:11:30.434Z,99.90
2023-08-19T04:13:58.737Z,99.90
2023-08-19T04:16:28.571Z,99.90
2023-08-19T04:18:56.881Z,99.90
2023-08-19T04:21:25.992Z,99.90
2023-08-19T04:23:55.004Z,99.90
2023-08-19T04:26:23.283Z,99.90
2023-08-19T04:28:52.625Z,99.90
2023-08-19T04:31:20.998Z,99.90
2023-08-19T04:33:50.734Z,99.90
2023-08-19T04:36:19.103Z,99.90
2023-08-19T04:38:47.449Z,99.90
2023-08-19T04:41:15.815Z,99.90
2023-08-19T04:43:44.142Z,99.90
2023-08-19T04:46:13.176Z,99.90
2023-08-19T04:48:42.064Z,99.90
2023-08-19T04:51:11.703Z,99.90
2023-08-19T04:53:39.982Z,99.90
2023-08-19T04:56:08.255Z,99.90
2023-08-19T04:58:37.463Z,99.90
2023-08-19T05:01:05.868Z,99.90
2023-08-19T05:03:34.280Z,99.90
2023-08-19T05:06:02.576Z,99.90
2023-08-19T05:08:32.352Z,99.90
2023-08-19T05:11:00.750Z,99.90
2023-08-19T05:13:29.068Z,99.90
2023-08-19T05:15:57.457Z,99.90
2023-08-19T05:18:26.304Z,99.90
2023-08-19T05:20:54.861Z,99.90
2023-08-19T05:23:24.948Z,99.90
2023-08-19T05:25:54.918Z,99.90
2023-08-19T05:28:23.220Z,99.90
2023-08-19T05:30:51.568Z,99.90
2023-08-19T05:33:19.898Z,99.90
2023-08-19T05:35:48.182Z,99.90
2023-08-19T05:38:16.551Z,99.90
2023-08-19T05:40:45.221Z,99.90
2023-08-19T05:43:14.956Z,99.90
2023-08-19T05:45:43.910Z,99.90
2023-08-19T05:48:12.404Z,99.90
2023-08-19T05:50:41.430Z,99.90
2023-08-19T05:53:09.945Z,99.90
2023-08-19T05:55:38.230Z,99.90
2023-08-19T05:58:06.564Z,99.90
2023-08-19T06:00:36.557Z,99.90
2023-08-19T06:03:05.197Z,99.90
2023-08-19T06:05:33.566Z,99.90
2023-08-19T06:08:02.026Z,99.90
2023-08-19T06:10:30.312Z,99.90
2023-08-19T06:12:58.636Z,99.90
2023-08-19T06:15:26.911Z,99.90
2023-08-19T06:17:56.795Z,99.90
2023-08-19T06:20:25.106Z,99.90
2023-08-19T06:22:53.493Z,99.90
2023-08-19T06:25:21.825Z,99.90
2023-08-19T06:27:50.259Z,99.90
2023-08-19T06:30:18.749Z,99.90
2023-08-19T06:32:47.384Z,99.90
2023-08-19T06:35:18.645Z,99.90
2023-08-19T06:37:49.278Z,99.90
2023-08-19T06:40:21.186Z,99.90
2023-08-19T06:42:50.510Z,99.90
2023-08-19T06:45:19.133Z,99.90
2023-08-19T06:47:47.914Z,99.90
2023-08-19T06:50:18.363Z,99.90
2023-08-19T06:52:47.117Z,99.90
2023-08-19T06:55:16.339Z,99.90
2023-08-19T06:57:49.287Z,99.90
2023-08-19T07:00:18.701Z,99.90
2023-08-19T07:02:47.759Z,99.90
2023-08-19T07:05:18.152Z,99.90
2023-08-19T07:07:48.890Z,99.90
2023-08-19T07:10:18.505Z,99.90
2023-08-19T07:12:47.195Z,99.90
2023-08-19T07:15:16.010Z,99.90
2023-08-19T07:17:45.990Z,99.90
2023-08-19T07:20:16.693Z,99.90
2023-08-19T07:22:46.936Z,99.90
2023-08-19T07:25:15.476Z,99.90
2023-08-19T07:27:44.604Z,99.90
2023-08-19T07:30:13.647Z,99.90
2023-08-19T07:32:43.599Z,99.90
2023-08-19T07:35:13.889Z,99.90
2023-08-19T07:37:45.914Z,99.90
2023-08-19T07:40:15.921Z,99.90
2023-08-19T07:42:44.324Z,99.90
2023-08-19T07:45:12.949Z,99.90
2023-08-19T07:47:41.455Z,99.90
2023-08-19T07:50:10.203Z,99.90
2023-08-19T07:52:38.566Z,99.90
2023-08-19T07:55:08.670Z,99.90
2023-08-19T07:57:38.477Z,99.90
2023-08-19T08:00:07.402Z,99.90
2023-08-19T08:02:35.754Z,99.90
2023-08-19T08:05:04.735Z,99.90
2023-08-19T08:07:33.319Z,99.90
2023-08-19T08:10:05.142Z,99.90
2023-08-19T08:12:33.519Z,99.90
2023-08-19T08:15:03.978Z,99.90
2023-08-19T08:17:32.985Z,99.90
2023-08-19T08:20:01.722Z,99.90
2023-08-19T08:22:30.203Z,99.90
2023-08-19T08:24:58.639Z,99.90
2023-08-19T08:27:27.293Z,99.90
2023-08-19T08:29:55.758Z,99.90
2023-08-19T08:32:25.588Z,99.90
2023-08-19T08:34:54.031Z,99.90
2023-08-19T08:37:22.341Z,99.90
2023-08-19T08:39:50.666Z,99.90
2023-08-19T08:42:19.459Z,99.90
2023-08-19T08:44:49.369Z,99.90
2023-08-19T08:47:18.012Z,99.90
2023-08-19T08:49:49.109Z,99.90
2023-08-19T08:52:17.932Z,99.90
2023-08-19T08:54:47.874Z,99.90
2023-08-19T08:57:17.876Z,95.70
2023-08-19T08:59:46.854Z,96.40
2023-08-19T09:02:15.568Z,96.80
2023-08-19T09:04:45.710Z,88.30
2023-08-19T09:07:18.408Z,78.80
2023-08-19T09:09:47.667Z,79.00
2023-08-19T09:12:16.274Z,71.50
2023-08-19T09:14:45.337Z,69.30
2023-08-19T09:17:14.617Z,65.10
2023-08-19T09:19:43.536Z,57.50
2023-08-19T09:22:12.607Z,57.90
2023-08-19T09:24:42.518Z,58.80
2023-08-19T09:27:11.222Z,54.50
2023-08-19T09:29:39.703Z,57.00
2023-08-19T09:32:08.170Z,62.30
2023-08-19T09:34:37.356Z,57.50
2023-08-19T09:37:10.430Z,55.20
2023-08-19T09:39:38.746Z,53.70
2023-08-19T09:42:10.949Z,57.10
2023-08-19T09:44:42.609Z,55.80
2023-08-19T09:47:11.018Z,54.20
2023-08-19T09:49:39.474Z,50.20
2023-08-19T09:52:07.946Z,48.10
2023-08-19T09:54:36.248Z,47.50
2023-08-19T09:57:04.584Z,48.30
2023-08-19T09:59:34.304Z,46.00
2023-08-19T10:02:02.603Z,45.40
2023-08-19T10:04:30.965Z,52.40
2023-08-19T10:07:02.126Z,55.20
2023-08-19T10:09:31.207Z,51.80
2023-08-19T10:12:01.936Z,52.00
2023-08-19T10:14:32.320Z,51.60
2023-08-19T10:17:10.042Z,52.80
2023-08-19T10:19:41.527Z,52.50
2023-08-19T10:22:10.624Z,56.50
2023-08-19T10:24:39.874Z,56.50
2023-08-19T10:27:08.282Z,51.30
2023-08-19T10:29:36.701Z,56.10
2023-08-19T10:32:19.851Z,62.00
2023-08-19T10:34:49.956Z,65.40
2023-08-19T10:37:18.399Z,75.50
2023-08-19T10:39:48.199Z,86.30
2023-08-19T10:42:16.584Z,92.40
2023-08-19T10:44:44.964Z,96.10
2023-08-19T10:47:15.368Z,99.90
2023-08-19T10:49:43.998Z,99.90
2023-08-19T10:52:21.938Z,99.90
2023-08-19T10:54:50.446Z,99.90
2023-08-19T10:57:23.541Z,99.90
2023-08-19T10:59:52.964Z,99.90
2023-08-19T11:02:21.496Z,99.90
2023-08-19T11:04:50.476Z,99.90
2023-08-19T11:07:20.750Z,99.90
2023-08-19T11:09:50.274Z,99.90
2023-08-19T11:12:19.835Z,99.90
2023-08-19T11:14:49.801Z,99.90
2023-08-19T11:17:18.622Z,99.90
2023-08-19T11:19:47.634Z,99.90
2023-08-19T11:22:16.536Z,99.90
2023-08-19T11:24:46.349Z,99.90
2023-08-19T11:27:15.075Z,99.90
2023-08-19T11:29:47.039Z,99.90
2023-08-19T11:32:19.539Z,99.90
2023-08-19T11:34:47.850Z,99.90
2023-08-19T11:37:17.568Z,99.90
2023-08-19T11:39:48.784Z,99.90
2023-08-19T11:42:17.104Z,99.90
2023-08-19T11:44:45.498Z,99.90
2023-08-19T11:47:14.329Z,99.90
2023-08-19T11:49:44.719Z,99.90
2023-08-19T11:52:19.810Z,99.90
2023-08-19T11:55:00.914Z,99.90
2023-08-19T11:57:33.697Z,99.90
2023-08-19T12:00:02.158Z,99.90
2023-08-19T12:02:32.200Z,99.90
2023-08-19T12:05:00.862Z,99.90
2023-08-19T12:07:31.296Z,99.90
2023-08-19T12:10:01.522Z,99.90
2023-08-19T12:12:30.360Z,99.90
2023-08-19T12:14:59.714Z,99.90
2023-08-19T12:17:28.121Z,99.90
2023-08-19T12:19:56.722Z,99.90
2023-08-19T12:22:25.320Z,99.90
2023-08-19T12:24:53.660Z,99.90
2023-08-19T12:27:23.537Z,99.90
2023-08-19T12:29:51.961Z,99.90
2023-08-19T12:32:20.298Z,99.90
2023-08-19T12:34:48.620Z,99.90
2023-08-19T12:37:17.139Z,99.90
2023-08-19T12:39:45.505Z,99.90
2023-08-19T12:42:13.912Z,99.90
2023-08-19T12:44:44.098Z,99.90
2023-08-19T12:47:12.508Z,99.90
2023-08-19T12:49:40.934Z,99.90
2023-08-19T12:52:09.376Z,99.90
2023-08-19T12:54:37.773Z,99.90
2023-08-19T12:57:06.114Z,99.90
2023-08-19T12:59:36.438Z,99.90
2023-08-19T13:02:08.182Z,99.90
2023-08-19T13:04:36.962Z,99.90
2023-08-19T13:09:49.875Z,99.90
2023-08-19T13:12:18.843Z,99.90
2023-08-19T13:14:48.357Z,99.90
2023-08-19T13:17:19.143Z,99.90
2023-08-19T13:19:47.436Z,99.90
2023-08-19T13:22:19.311Z,99.90
2023-08-19T13:24:47.724Z,99.90
2023-08-19T13:27:16.599Z,99.90
2023-08-19T13:29:46.944Z,99.90
2023-08-19T13:32:15.795Z,99.90
2023-08-19T13:34:46.700Z,99.90
2023-08-19T13:37:16.285Z,99.90
2023-08-19T13:39:44.859Z,99.90
2023-08-19T13:42:15.699Z,99.90
2023-08-19T13:44:44.754Z,99.90
2023-08-19T13:47:17.395Z,99.90
2023-08-19T13:49:47.118Z,99.90
2023-08-19T13:52:36.919Z,99.90
2023-08-19T13:55:09.703Z,99.90
2023-08-19T13:57:39.716Z,99.90
2023-08-19T14:00:12.912Z,99.90
2023-08-19T14:02:43.005Z,99.90
2023-08-19T14:05:15.009Z,99.90
2023-08-19T14:07:45.121Z,99.90
2023-08-19T14:10:13.796Z,99.90
2023-08-19T14:12:43.997Z,99.90
2023-08-19T14:15:13.470Z,99.90
2023-08-19T14:17:43.439Z,99.90
2023-08-19T14:20:17.962Z,99.90
2023-08-19T14:22:47.713Z,99.90
2023-08-19T14:25:16.898Z,99.90
2023-08-19T14:27:46.780Z,99.90
2023-08-19T14:30:16.602Z,99.90
2023-08-19T14:32:45.830Z,99.90
2023-08-19T14:35:17.112Z,99.90
2023-08-19T14:37:45.841Z,99.90
2023-08-19T14:40:15.662Z,99.90
2023-08-19T14:42:45.271Z,99.90
2023-08-19T14:45:14.742Z,99.90
2023-08-19T14:47:43.192Z,99.90
2023-08-19T14:50:11.916Z,99.90
2023-08-19T14:52:41.764Z,99.90
2023-08-19T14:55:11.865Z,99.90
2023-08-19T14:57:40.878Z,99.90
2023-08-19T15:00:12.578Z,99.90
2023-08-19T15:02:48.002Z,99.90
2023-08-19T15:05:16.982Z,99.90
2023-08-19T15:07:46.995Z,99.90
2023-08-19T15:10:15.778Z,99.90
2023-08-19T15:12:44.560Z,99.90
2023-08-19T15:15:18.809Z,99.90
2023-08-19T15:17:48.045Z,99.90
2023-08-19T15:20:16.913Z,99.90
2023-08-19T15:22:47.040Z,99.90
2023-08-19T15:25:15.750Z,99.90
2023-08-19T15:27:45.847Z,99.90
2023-08-19T15:30:15.711Z,99.90
2023-08-19T15:32:47.958Z,99.90
2023-08-19T15:35:16.748Z,99.90
2023-08-19T15:37:47.278Z,99.90
2023-08-19T15:40:16.062Z,99.90
2023-08-19T15:42:44.931Z,99.90
2023-08-19T15:45:13.563Z,99.90
2023-08-19T15:47:43.967Z,99.90
2023-08-19T15:50:13.225Z,99.90
2023-08-19T15:52:42.161Z,99.90
2023-08-19T15:55:12.749Z,99.90
2023-08-19T15:57:41.596Z,99.90
2023-08-19T16:00:13.221Z,99.90
2023-08-19T16:02:42.566Z,99.90
2023-08-19T16:05:11.917Z,99.90
2023-08-19T16:07:41.927Z,99.90
2023-08-19T16:10:12.755Z,99.90
2023-08-19T16:12:42.101Z,99.90
2023-08-19T16:15:11.523Z,99.90
2023-08-19T16:17:40.596Z,99.90
2023-08-19T16:20:10.058Z,99.90
2023-08-19T16:22:38.894Z,99.90
2023-08-19T16:25:08.274Z,99.90
2023-08-19T16:27:38.522Z,99.90
2023-08-19T16:30:07.842Z,99.90
2023-08-19T16:32:36.546Z,99.90
2023-08-19T16:35:05.580Z,99.90
2023-08-19T16:37:34.463Z,99.90
2023-08-19T16:40:04.350Z,99.90
2023-08-19T16:42:33.167Z,99.90
2023-08-19T16:45:03.219Z,99.90
2023-08-19T16:47:32.404Z,99.90
2023-08-19T16:50:01.661Z,99.90
2023-08-19T16:52:30.281Z,99.90
2023-08-19T16:54:58.928Z,99.90
2023-08-19T16:57:27.710Z,99.90
2023-08-19T16:59:56.364Z,99.90
2023-08-19T17:02:26.642Z,99.90
2023-08-19T17:04:55.492Z,99.90
2023-08-19T17:07:24.378Z,99.90
2023-08-19T17:09:53.111Z,99.90
2023-08-19T17:12:21.932Z,99.90
2023-08-19T17:14:50.809Z,99.90
2023-08-19T17:17:20.148Z,99.90
2023-08-19T17:19:52.021Z,99.90
2023-08-19T17:22:24.369Z,99.90
2023-08-19T17:24:53.235Z,99.90
2023-08-19T17:27:22.905Z,99.90
2023-08-19T17:29:52.953Z,99.90
2023-08-19T17:32:21.635Z,99.90
2023-08-19T17:34:54.308Z,99.90
2023-08-19T17:37:23.104Z,99.90
2023-08-19T17:39:51.823Z,99.90
2023-08-19T17:42:20.633Z,99.90
2023-08-19T17:44:53.830Z,99.90
2023-08-19T17:47:22.873Z,99.90
2023-08-19T17:49:52.980Z,99.90
2023-08-19T17:52:21.708Z,99.90
2023-08-19T17:54:50.341Z,99.90
2023-08-19T17:57:18.980Z,99.90
2023-08-19T17:59:48.125Z,99.90
2023-08-19T18:02:16.787Z,99.90
2023-08-19T18:04:45.465Z,99.90
2023-08-19T18:07:16.463Z,99.90
2023-08-19T18:09:45.272Z,99.90
2023-08-19T18:12:14.158Z,99.90
2023-08-19T18:14:43.668Z,99.90
2023-08-19T18:17:12.584Z,99.90
2023-08-19T18:19:41.344Z,99.90
2023-08-19T18:22:10.527Z,99.90
2023-08-19T18:24:40.949Z,99.90
2023-08-19T18:27:09.645Z,99.90
2023-08-19T18:29:41.879Z,99.90
2023-08-19T18:32:11.972Z,99.90
2023-08-19T18:34:41.104Z,99.90
2023-08-19T18:37:09.760Z,99.90
2023-08-19T18:39:38.422Z,99.90
2023-08-19T18:42:08.965Z,99.90
2023-08-19T18:44:37.688Z,99.90
2023-08-19T18:47:06.586Z,99.90
2023-08-19T18:49:35.943Z,99.90
2023-08-19T18:52:04.773Z,99.90
2023-08-19T18:54:33.618Z,99.90
2023-08-19T18:57:02.401Z,99.90
2023-08-19T18:59:32.546Z,99.90
2023-08-19T19:02:01.366Z,99.90
2023-08-19T19:04:30.084Z,99.90
2023-08-19T19:06:58.783Z,99.90
2023-08-19T19:09:27.602Z,99.90
2023-08-19T19:11:56.386Z,99.90
2023-08-19T19:14:25.043Z,99.90
2023-08-19T19:16:55.113Z,99.90
2023-08-19T19:19:24.082Z,99.90
2023-08-19T19:21:52.755Z,99.90
2023-08-19T19:24:21.537Z,99.90
2023-08-19T19:26:50.378Z,99.90
2023-08-19T19:29:20.329Z,99.90
2023-08-19T19:31:49.062Z,99.90
2023-08-19T19:34:19.273Z,99.90
2023-08-19T19:36:48.104Z,99.90
2023-08-19T19:39:17.504Z,99.90
2023-08-19T19:41:46.171Z,99.90
2023-08-19T19:44:14.924Z,99.90
2023-08-19T19:46:44.217Z,99.90
2023-08-19T19:49:12.902Z,99.90
2023-08-19T19:51:43.404Z,99.90
2023-08-19T19:54:12.112Z,99.90
2023-08-19T19:56:40.977Z,99.90
2023-08-19T19:59:09.730Z,99.90
2023-08-19T20:01:38.625Z,99.90
2023-08-19T20:04:07.709Z,99.90
2023-08-19T20:06:36.479Z,99.90
2023-08-19T20:09:06.917Z,99.90
2023-08-19T20:11:35.698Z,99.90
2023-08-19T20:14:04.684Z,99.90
2023-08-19T20:16:33.412Z,99.90
2023-08-19T20:19:02.107Z,99.90
2023-08-19T20:21:32.766Z,99.90
2023-08-19T20:24:01.351Z,99.90
2023-08-19T20:26:31.444Z,99.90
2023-08-19T20:29:00.205Z,99.90
2023-08-19T20:31:31.287Z,99.90
2023-08-19T20:34:00.175Z,99.90
2023-08-19T20:36:30.206Z,99.90
2023-08-19T20:38:58.896Z,99.90
2023-08-19T20:41:27.684Z,99.90
2023-08-19T20:44:10.205Z,99.90
2023-08-19T20:46:39.098Z,99.90
2023-08-19T20:49:08.525Z,99.90
2023-08-19T20:51:37.263Z,99.90
2023-08-19T20:54:06.635Z,99.90
2023-08-19T20:56:35.604Z,99.90
2023-08-19T20:59:04.301Z,99.90
2023-08-19T21:01:34.891Z,99.90
2023-08-19T21:04:03.571Z,99.90
2023-08-19T21:06:33.042Z,99.90
2023-08-19T21:09:01.769Z,99.90
2023-08-19T21:11:30.489Z,99.90
2023-08-19T21:13:59.282Z,99.90
2023-08-19T21:16:27.973Z,99.90
2023-08-19T21:18:58.255Z,99.90
2023-08-19T21:21:27.738Z,99.90
2023-08-19T21:23:56.423Z,99.90
2023-08-19T21:26:25.175Z,99.90
2023-08-19T21:28:53.877Z,99.90
2023-08-19T21:31:22.592Z,99.90
2023-08-19T21:33:52.642Z,99.90
2023-08-19T21:36:22.698Z,99.90
2023-08-19T21:38:51.424Z,99.90
2023-08-19T21:41:20.108Z,99.90
2023-08-19T21:43:48.798Z,99.90
2023-08-19T21:46:17.568Z,99.90
2023-08-19T21:48:47.706Z,99.90
2023-08-19T21:51:16.477Z,99.90
2023-08-19T21:53:46.625Z,99.90
2023-08-19T21:56:15.344Z,99.90
2023-08-19T21:58:44.156Z,99.90
2023-08-19T22:01:13.780Z,99.90
2023-08-19T22:03:43.690Z,99.90
2023-08-19T22:06:13.895Z,99.90
2023-08-19T22:08:49.007Z,99.90
2023-08-19T22:11:20.996Z,99.90
2023-08-19T22:13:49.710Z,99.90
2023-08-19T22:16:18.407Z,99.90
2023-08-19T22:18:47.182Z,99.90
2023-08-19T22:21:15.844Z,99.90
2023-08-19T22:23:44.806Z,99.90
2023-08-19T22:26:13.580Z,99.90
2023-08-19T22:28:43.873Z,99.90
2023-08-19T22:31:12.609Z,99.90
2023-08-19T22:33:43.370Z,99.90
2023-08-19T22:36:12.071Z,99.90
2023-08-19T22:38:41.028Z,99.90
2023-08-19T22:41:11.730Z,99.90
2023-08-19T22:43:40.411Z,99.90
2023-08-19T22:46:10.585Z,99.90
2023-08-19T22:48:39.328Z,99.90
2023-08-19T22:51:08.241Z,99.90
2023-08-19T22:53:36.987Z,99.90
2023-08-19T22:56:05.847Z,99.90
2023-08-19T22:58:34.743Z,99.90
2023-08-19T23:01:04.981Z,99.90
2023-08-19T23:03:35.222Z,99.90
2023-08-19T23:06:03.977Z,99.90
2023-08-19T23:08:32.576Z,99.90
2023-08-19T23:11:01.377Z,99.90
2023-08-19T23:13:30.099Z,99.90
2023-08-19T23:15:58.839Z,99.90
2023-08-19T23:18:27.545Z,99.90
2023-08-19T23:20:58.164Z,99.90
2023-08-19T23:23:27.006Z,99.90
2023-08-19T23:25:55.761Z,99.90
2023-08-19T23:28:24.561Z,99.90
2023-08-19T23:30:53.305Z,99.90
2023-08-19T23:33:21.953Z,99.90
2023-08-19T23:35:50.677Z,99.90
2023-08-19T23:38:20.881Z,99.90
2023-08-19T23:40:49.827Z,99.90
2023-08-19T23:43:18.433Z,99.90
2023-08-19T23:45:47.142Z,99.90
2023-08-19T23:48:16.298Z,99.90
2023-08-19T23:50:45.386Z,99.90
2023-08-19T23:53:14.440Z,99.90
2023-08-19T23:55:45.267Z,99.90
2023-08-19T23:58:14.126Z,99.90
